Time;durP1;ratioP1;P1;durP2;ratioP2;P2;SDS_P1;SDS_P2;PMS_P1;PMS_P2;Temp;Humidity;BMP_temperature;BMP_pressure;BME280_temperature;BME280_humidity;BME280_pressure;Samples;Min_cycle;Max_cycle;Signal;HPM_P1;HPM_P2
2022/04/05 00:00:36;;;;;;;;;98.75;92.00;8.50;50.30;;;;;;4975947;28;8792;-57
2022/04/05 00:03:02;;;;;;;;;106.00;99.25;8.50;50.50;;;;;;4975653;28;8793;-56
2022/04/05 00:05:28;;;;;;;;;97.75;87.50;8.60;50.10;;;;;;4975891;28;8777;-58
2022/04/05 00:07:54;;;;;;;;;107.50;100.00;8.70;49.90;;;;;;4972571;28;9527;-58
2022/04/05 00:10:21;;;;;;;;;95.00;89.25;8.50;50.60;;;;;;4946783;29;8785;-58
2022/04/05 00:12:47;;;;;;;;;110.25;100.75;8.50;50.80;;;;;;4937354;29;8815;-56
2022/04/05 00:15:13;;;;;;;;;99.50;81.25;8.50;51.20;;;;;;4937059;29;8777;-56
2022/04/05 00:17:39;;;;;;;;;95.00;84.50;8.30;51.50;;;;;;4936898;29;8832;-57
2022/04/05 00:20:07;;;;;;;;;92.00;81.50;8.10;52.50;;;;;;4937272;29;9475;-59
2022/04/05 00:22:33;;;;;;;;;104.50;96.50;7.90;53.50;;;;;;4937189;29;8823;-56
2022/04/05 00:24:59;;;;;;;;;102.25;92.75;7.70;53.60;;;;;;4937212;29;8773;-55
2022/04/05 00:27:25;;;;;;;;;98.50;90.25;8.00;53.20;;;;;;4937082;29;9500;-54
2022/04/05 00:29:51;;;;;;;;;112.25;99.75;8.00;53.30;;;;;;4941046;29;8789;-56
2022/04/05 00:32:17;;;;;;;;;116.00;104.00;8.00;53.10;;;;;;4951667;29;8824;-55
2022/04/05 00:34:42;;;;;;;;;117.00;109.00;8.00;53.10;;;;;;4956064;29;8861;-59
2022/04/05 00:37:08;;;;;;;;;119.50;113.00;8.20;52.30;;;;;;4956175;29;8904;-57
2022/04/05 00:39:34;;;;;;;;;116.50;100.00;8.20;53.10;;;;;;4955970;29;8783;-55
2022/04/05 00:42:00;;;;;;;;;96.50;86.50;7.90;53.00;;;;;;4955998;29;8791;-57
2022/04/05 00:44:26;;;;;;;;;103.75;96.25;8.00;52.60;;;;;;4956235;29;8778;-56
2022/04/05 00:46:54;;;;;;;;;97.00;86.00;8.00;52.60;;;;;;4955866;29;9428;-58
2022/04/05 00:49:37;;;;;;;;;87.25;74.50;7.80;53.70;;;;;;4955738;29;8783;-57
2022/04/05 00:52:04;;;;;;;;;100.00;86.00;7.20;55.50;;;;;;4956074;29;9474;-57
2022/04/05 00:54:31;;;;;;;;;87.75;76.25;7.20;55.90;;;;;;4956126;29;8866;-58
2022/04/05 00:56:58;;;;;;;;;90.50;74.50;7.20;55.40;;;;;;4956041;28;9585;-57
2022/04/05 00:59:28;;;;;;;;;85.75;67.00;7.30;55.30;;;;;;4956192;28;8835;-58
2022/04/05 01:01:56;;;;;;;;;86.25;65.00;7.40;54.70;;;;;;4956139;28;8785;-57
2022/04/05 01:04:22;;;;;;;;;80.25;65.50;7.10;55.40;;;;;;4956134;28;8811;-55
2022/04/05 01:06:49;;;;;;;;;80.00;63.00;6.80;57.20;;;;;;4955789;29;8887;-57
2022/04/05 01:09:15;;;;;;;;;82.50;65.00;6.90;56.90;;;;;;4955785;28;8811;-57
2022/04/05 01:11:41;;;;;;;;;79.00;61.75;6.80;57.20;;;;;;4955761;29;8793;-55
2022/04/05 01:14:07;;;;;;;;;75.50;60.50;6.90;56.50;;;;;;4955796;29;8784;-57
2022/04/05 01:16:33;;;;;;;;;80.25;63.75;6.90;56.10;;;;;;4955664;29;8851;-57
2022/04/05 01:18:59;;;;;;;;;84.00;66.25;7.30;54.70;;;;;;4955693;28;8907;-56
2022/04/05 01:21:27;;;;;;;;;90.50;67.00;7.60;53.60;;;;;;4955837;29;9447;-56
2022/04/05 01:24:11;;;;;;;;;89.00;75.75;7.60;53.60;;;;;;4955663;28;8797;-57
2022/04/05 01:26:45;;;;;;;;;84.50;67.75;7.60;53.20;;;;;;4955948;28;8841;-55
2022/04/05 01:29:13;;;;;;;;;89.50;75.25;7.50;53.50;;;;;;4958014;28;8792;-58
2022/04/05 01:31:48;;;;;;;;;90.50;78.50;7.00;55.90;;;;;;4959023;28;8800;-57
2022/04/05 01:34:16;;;;;;;;;94.00;81.75;6.80;56.50;;;;;;4959056;28;8894;-57
2022/04/05 01:36:53;;;;;;;;;85.00;66.50;6.90;56.70;;;;;;4957850;28;8898;-58
2022/04/05 01:39:28;;;;;;;;;82.75;66.00;6.50;58.10;;;;;;4958971;28;8862;-57
2022/04/05 01:41:57;;;;;;;;;83.50;66.25;6.70;57.50;;;;;;4958754;28;8784;-58
2022/04/05 01:44:25;;;;;;;;;83.00;67.25;6.40;58.60;;;;;;4958856;28;8861;-56
2022/04/05 01:46:51;;;;;;;;;82.75;65.50;6.10;60.30;;;;;;4958796;28;8807;-58
2022/04/05 01:49:17;;;;;;;;;85.50;67.00;6.40;59.60;;;;;;4958828;28;8811;-56
2022/04/05 01:51:45;;;;;;;;;80.00;65.75;6.50;59.10;;;;;;4939522;29;8808;-57
2022/04/05 01:54:13;;;;;;;;;82.50;65.00;6.90;57.40;;;;;;4939506;29;8773;-57
2022/04/05 01:56:44;;;;;;;;;76.25;62.00;6.70;57.60;;;;;;4939608;29;8836;-57
2022/04/05 01:59:11;;;;;;;;;81.00;63.25;7.00;56.50;;;;;;4939338;29;8781;-56
2022/04/05 02:01:37;;;;;;;;;87.00;69.00;7.30;55.00;;;;;;4939331;29;8789;-57
2022/04/05 02:04:03;;;;;;;;;72.25;59.75;7.40;54.40;;;;;;4939323;29;8777;-56
2022/04/05 02:06:29;;;;;;;;;73.00;59.25;7.40;54.30;;;;;;4939274;29;8873;-56
2022/04/05 02:08:55;;;;;;;;;75.00;59.25;7.50;54.10;;;;;;4939242;29;8777;-56
2022/04/05 02:11:22;;;;;;;;;77.25;61.50;7.10;55.80;;;;;;4939165;29;8785;-56
2022/04/05 02:13:49;;;;;;;;;80.00;61.50;6.80;56.90;;;;;;4939382;29;8805;-55
2022/04/05 02:16:15;;;;;;;;;72.00;56.25;7.10;56.30;;;;;;4939046;29;8829;-56
2022/04/05 02:18:41;;;;;;;;;74.50;58.00;7.30;55.10;;;;;;4939121;29;8844;-56
2022/04/05 02:21:07;;;;;;;;;58.75;44.75;7.40;54.60;;;;;;4939280;29;9424;-56
2022/04/05 02:23:33;;;;;;;;;74.25;54.75;7.40;54.10;;;;;;4938978;29;8784;-56
2022/04/05 02:25:59;;;;;;;;;67.25;52.25;7.20;54.70;;;;;;4939059;29;8879;-56
2022/04/05 02:28:25;;;;;;;;;68.25;55.75;6.90;55.90;;;;;;4938818;29;8789;-56
2022/04/05 02:30:51;;;;;;;;;67.00;54.75;6.30;58.90;;;;;;4939018;29;8761;-55
2022/04/05 02:33:17;;;;;;;;;66.50;52.50;6.00;60.70;;;;;;4939025;29;9465;-56
2022/04/05 02:35:43;;;;;;;;;72.00;55.25;6.20;60.50;;;;;;4938682;29;8803;-57
2022/04/05 02:38:10;;;;;;;;;67.75;57.25;6.40;59.40;;;;;;4938771;29;8801;-57
2022/04/05 02:40:36;;;;;;;;;74.00;60.50;6.60;58.50;;;;;;4938420;29;8887;-57
2022/04/05 02:43:03;;;;;;;;;75.25;57.25;6.70;57.50;;;;;;4938881;29;9413;-55
2022/04/05 02:45:30;;;;;;;;;72.00;57.50;7.10;56.40;;;;;;4938513;29;8887;-56
2022/04/05 02:47:56;;;;;;;;;70.00;56.00;7.30;55.60;;;;;;4938487;29;8769;-56
2022/04/05 02:50:22;;;;;;;;;75.50;60.50;7.50;55.30;;;;;;4946653;28;8835;-58
2022/04/05 02:52:49;;;;;;;;;76.25;59.75;7.60;54.40;;;;;;4957578;28;8823;-55
2022/04/05 02:55:16;;;;;;;;;75.50;60.50;7.60;54.10;;;;;;4957502;28;8862;-56
2022/04/05 02:57:44;;;;;;;;;73.50;59.25;7.50;54.30;;;;;;4957893;28;8844;-54
2022/04/05 03:00:12;;;;;;;;;85.75;69.00;7.20;55.40;;;;;;4957454;28;8800;-56
2022/04/05 03:02:39;;;;;;;;;82.75;64.00;7.00;56.10;;;;;;4957641;28;9490;-57
2022/04/05 03:05:06;;;;;;;;;91.00;71.00;6.70;57.20;;;;;;4957367;28;8800;-55
2022/04/05 03:07:34;;;;;;;;;76.50;61.00;6.90;57.00;;;;;;4957303;28;8791;-56
2022/04/05 03:10:06;;;;;;;;;78.75;62.25;7.20;56.00;;;;;;4957518;28;9443;-57
2022/04/05 03:12:32;;;;;;;;;86.50;68.00;7.50;55.30;;;;;;4957241;28;8795;-57
2022/04/05 03:14:58;;;;;;;;;67.00;54.00;7.50;54.70;;;;;;4957176;28;8797;-56
2022/04/05 03:17:24;;;;;;;;;75.50;61.25;7.30;55.60;;;;;;4955920;28;8836;-53
2022/04/05 03:19:51;;;;;;;;;66.75;54.00;6.60;58.30;;;;;;4937933;29;8779;-56
2022/04/05 03:22:17;;;;;;;;;67.50;56.00;6.40;59.10;;;;;;4938127;29;8818;-56
2022/04/05 03:24:43;;;;;;;;;75.25;60.75;6.30;59.70;;;;;;4937868;29;8803;-56
2022/04/05 03:27:09;;;;;;;;;75.00;60.00;6.40;59.20;;;;;;4938070;29;8833;-56
2022/04/05 03:29:35;;;;;;;;;72.25;58.75;6.50;59.30;;;;;;4938297;29;8801;-56
2022/04/05 03:32:02;;;;;;;;;75.00;60.00;6.70;58.40;;;;;;4937635;29;8790;-56
2022/04/05 03:34:29;;;;;;;;;79.50;62.50;6.70;58.30;;;;;;4937618;29;8797;-56
2022/04/05 03:36:55;;;;;;;;;67.75;56.75;7.10;56.90;;;;;;4937543;29;8838;-55
2022/04/05 03:39:21;;;;;;;;;74.00;60.00;7.30;56.30;;;;;;4942982;28;8775;-57
2022/04/05 03:41:46;;;;;;;;;80.75;63.25;7.40;55.80;;;;;;4944044;29;8795;-55
2022/04/05 03:44:12;;;;;;;;;73.00;59.50;7.50;55.50;;;;;;4937757;29;8786;-54
2022/04/05 03:46:38;;;;;;;;;73.50;56.75;7.50;55.20;;;;;;4937473;29;8795;-57
2022/04/05 03:49:04;;;;;;;;;67.25;55.25;7.50;55.30;;;;;;4937383;29;8794;-56
2022/04/05 03:51:30;;;;;;;;;74.50;60.00;7.40;55.30;;;;;;4936748;29;8917;-56
2022/04/05 03:53:56;;;;;;;;;69.00;54.25;7.50;55.60;;;;;;4937368;29;8814;-57
2022/04/05 03:56:23;;;;;;;;;66.25;55.00;7.50;55.50;;;;;;4937408;29;8862;-56
2022/04/05 03:58:49;;;;;;;;;59.00;48.50;7.50;55.00;;;;;;4937525;29;8791;-58
2022/04/05 04:01:16;;;;;;;;;73.25;58.00;7.50;55.10;;;;;;4937317;29;8771;-55
2022/04/05 04:03:42;;;;;;;;;62.75;51.00;7.50;55.20;;;;;;4937245;29;8797;-56
2022/04/05 04:06:08;;;;;;;;;67.25;56.00;7.40;55.00;;;;;;4937470;29;8811;-57
2022/04/05 04:08:35;;;;;;;;;67.50;56.50;7.10;56.00;;;;;;4937210;29;9420;-56
2022/04/05 04:11:02;;;;;;;;;67.00;54.50;7.20;55.90;;;;;;4937320;29;8779;-57
2022/04/05 04:13:28;;;;;;;;;68.00;57.50;7.20;56.00;;;;;;4937140;29;8821;-57
2022/04/05 04:15:54;;;;;;;;;67.00;55.25;7.20;56.30;;;;;;4936983;29;8811;-58
2022/04/05 04:18:20;;;;;;;;;72.50;58.50;7.50;55.80;;;;;;4937083;29;8882;-57
2022/04/05 04:20:48;;;;;;;;;83.00;67.00;7.50;55.50;;;;;;4937184;29;8791;-57
2022/04/05 04:23:15;;;;;;;;;86.75;66.75;7.40;55.40;;;;;;4941462;28;8800;-53
2022/04/05 04:25:41;;;;;;;;;88.25;70.50;7.40;55.30;;;;;;4956045;29;8784;-55
2022/04/05 04:28:08;;;;;;;;;89.25;74.00;7.30;56.40;;;;;;4956468;29;8800;-55
2022/04/05 04:30:35;;;;;;;;;85.50;67.25;7.30;56.50;;;;;;4956304;29;8784;-56
2022/04/05 04:33:01;;;;;;;;;91.75;74.25;7.30;56.80;;;;;;4956343;29;8917;-57
2022/04/05 04:35:27;;;;;;;;;94.50;82.25;7.50;56.20;;;;;;4954982;29;8776;-56
2022/04/05 04:37:54;;;;;;;;;101.75;91.75;7.60;56.00;;;;;;4955960;28;8804;-57
2022/04/05 04:40:20;;;;;;;;;100.75;93.00;7.60;56.00;;;;;;4948243;29;9429;-55
2022/04/05 04:42:46;;;;;;;;;99.25;91.00;7.60;56.10;;;;;;4947094;28;9421;-55
2022/04/05 04:45:13;;;;;;;;;105.25;93.00;7.70;56.30;;;;;;4947720;28;8812;-56
2022/04/05 04:47:39;;;;;;;;;98.00;80.25;7.60;56.50;;;;;;4955908;29;8918;-56
2022/04/05 04:50:06;;;;;;;;;106.25;97.75;7.60;56.90;;;;;;4962036;28;8947;-56
2022/04/05 04:52:32;;;;;;;;;100.00;84.75;7.60;57.10;;;;;;4975046;28;8852;-57
2022/04/05 04:54:58;;;;;;;;;102.75;89.50;7.60;58.00;;;;;;4958249;28;8817;-67
2022/04/05 04:57:25;;;;;;;;;106.50;91.50;7.70;57.90;;;;;;4950634;28;8827;-57
2022/04/05 04:59:52;;;;;;;;;103.75;90.25;7.80;57.60;;;;;;4948118;28;8808;-57
2022/04/05 05:02:22;;;;;;;;;95.50;80.25;7.90;57.70;;;;;;4937739;29;8887;-58
2022/04/05 05:04:49;;;;;;;;;91.25;75.50;7.90;57.80;;;;;;4967216;28;8800;-57
2022/04/05 05:07:15;;;;;;;;;95.50;80.25;7.90;57.70;;;;;;4979038;28;8793;-57
2022/04/05 05:09:41;;;;;;;;;96.25;83.50;7.80;58.90;;;;;;4978746;28;8788;-59
2022/04/05 05:12:10;;;;;;;;;98.50;82.00;7.90;58.90;;;;;;4978708;28;8783;-58
2022/04/05 05:14:36;;;;;;;;;93.75;76.75;7.80;59.50;;;;;;4978554;28;8780;-63
2022/04/05 05:17:03;;;;;;;;;113.75;104.50;7.90;59.70;;;;;;4978445;28;8804;-58
2022/04/05 05:19:29;;;;;;;;;107.25;99.25;7.90;58.70;;;;;;4978753;28;8907;-57
2022/04/05 05:21:54;;;;;;;;;101.75;92.50;8.00;59.20;;;;;;4978465;28;8899;-57
2022/04/05 05:24:20;;;;;;;;;107.75;98.00;8.10;60.80;;;;;;4978374;28;8812;-57
2022/04/05 05:26:47;;;;;;;;;112.75;109.50;8.10;60.50;;;;;;4978403;28;8813;-57
2022/04/05 05:29:15;;;;;;;;;132.25;115.50;8.20;59.10;;;;;;4978418;28;8769;-57
2022/04/05 05:31:41;;;;;;;;;107.75;101.00;8.20;58.30;;;;;;4978340;28;8785;-57
2022/04/05 05:34:07;;;;;;;;;106.00;93.75;8.50;58.10;;;;;;4978641;28;8769;-57
2022/04/05 05:36:33;;;;;;;;;104.00;97.50;8.30;59.90;;;;;;4978476;28;8919;-58
2022/04/05 05:38:59;;;;;;;;;120.75;113.00;8.10;61.30;;;;;;4978327;28;9503;-58
2022/04/05 05:41:24;;;;;;;;;121.25;109.25;8.10;60.70;;;;;;4978222;28;8765;-57
2022/04/05 05:43:50;;;;;;;;;117.00;108.75;8.20;60.90;;;;;;4978100;28;8789;-58
2022/04/05 05:46:16;;;;;;;;;99.75;91.00;8.50;59.50;;;;;;4978012;28;8773;-58
2022/04/05 05:48:42;;;;;;;;;100.00;84.00;8.70;58.60;;;;;;4977924;28;8785;-58
2022/04/05 05:51:08;;;;;;;;;97.50;84.75;8.60;58.80;;;;;;4977836;28;8848;-57
2022/04/05 05:53:34;;;;;;;;;98.25;87.50;8.70;57.90;;;;;;4977967;28;8780;-57
2022/04/05 05:56:00;;;;;;;;;99.50;92.25;8.90;57.40;;;;;;4960542;28;8780;-60
2022/04/05 05:58:27;;;;;;;;;96.75;86.75;9.00;56.80;;;;;;4977992;28;8788;-57
2022/04/05 06:00:52;;;;;;;;;89.00;77.25;9.20;56.40;;;;;;4977809;28;8769;-59
2022/04/05 06:03:18;;;;;;;;;83.50;65.00;9.10;56.00;;;;;;4977825;28;8801;-61
2022/04/05 06:05:46;;;;;;;;;89.00;72.25;9.00;56.60;;;;;;4964719;28;8777;-57
2022/04/05 06:08:17;;;;;;;;;87.50;70.00;9.10;55.30;;;;;;4939339;29;8781;-57
2022/04/05 06:10:43;;;;;;;;;83.50;65.25;9.30;55.10;;;;;;4939246;29;8773;-56
2022/04/05 06:13:08;;;;;;;;;86.50;69.00;9.20;54.50;;;;;;4939183;29;8786;-56
2022/04/05 06:15:34;;;;;;;;;85.75;68.25;9.50;53.50;;;;;;4937947;29;8769;-58
2022/04/05 06:18:00;;;;;;;;;90.25;73.00;9.60;53.30;;;;;;4938689;29;8821;-58
2022/04/05 06:20:28;;;;;;;;;84.50;68.50;9.60;53.30;;;;;;4939077;29;8781;-58
2022/04/05 06:22:56;;;;;;;;;75.25;61.25;9.70;54.00;;;;;;4938944;29;8807;-57
2022/04/05 06:25:27;;;;;;;;;84.00;68.00;9.80;53.00;;;;;;4939062;29;8777;-58
2022/04/05 06:27:53;;;;;;;;;87.25;67.50;9.50;52.40;;;;;;4939236;29;8821;-57
2022/04/05 06:30:19;;;;;;;;;92.25;77.00;9.60;53.20;;;;;;4938213;29;8805;-58
2022/04/05 06:32:46;;;;;;;;;93.75;77.75;9.70;52.70;;;;;;4938853;29;8872;-56
2022/04/05 06:35:14;;;;;;;;;91.50;76.00;10.00;52.50;;;;;;4938897;29;8799;-56
2022/04/05 06:37:43;;;;;;;;;89.25;66.50;10.20;51.60;;;;;;4938643;29;8851;-58
2022/04/05 06:40:10;;;;;;;;;86.75;72.75;10.20;51.20;;;;;;4938530;29;8809;-58
2022/04/05 06:42:41;;;;;;;;;92.00;72.50;10.40;50.70;;;;;;4938683;29;8761;-58
2022/04/05 06:45:09;;;;;;;;;92.00;78.00;10.40;50.60;;;;;;4937978;29;8781;-59
2022/04/05 06:47:37;;;;;;;;;91.00;80.00;10.30;50.90;;;;;;4938542;29;8888;-58
2022/04/05 06:50:05;;;;;;;;;93.00;82.50;10.40;50.70;;;;;;4938280;29;8829;-59
2022/04/05 06:52:31;;;;;;;;;91.75;75.00;10.40;50.50;;;;;;4938560;29;8771;-59
2022/04/05 06:54:57;;;;;;;;;89.75;71.00;10.70;50.00;;;;;;4938246;29;9504;-57
2022/04/05 06:57:22;;;;;;;;;87.50;68.00;10.80;49.70;;;;;;4938451;29;8850;-56
2022/04/05 06:59:48;;;;;;;;;88.50;72.75;11.00;49.40;;;;;;4937904;29;8879;-58
2022/04/05 07:02:15;;;;;;;;;82.25;66.75;10.80;50.40;;;;;;4938196;29;8771;-59
2022/04/05 07:04:40;;;;;;;;;76.50;61.75;10.80;50.30;;;;;;4938103;29;8779;-57
2022/04/05 07:07:06;;;;;;;;;77.75;61.50;11.20;49.60;;;;;;4937093;29;8802;-61
2022/04/05 07:09:32;;;;;;;;;80.00;65.00;11.30;48.80;;;;;;4938103;29;8791;-60
2022/04/05 07:11:58;;;;;;;;;79.00;63.25;11.40;48.90;;;;;;4937782;29;8877;-60
2022/04/05 07:14:23;;;;;;;;;77.00;60.25;11.50;48.70;;;;;;4938273;29;8787;-60
2022/04/05 07:16:49;;;;;;;;;73.00;59.00;11.10;49.70;;;;;;4937914;29;9605;-60
2022/04/05 07:19:15;;;;;;;;;77.00;58.00;11.40;49.50;;;;;;4937832;29;8805;-59
2022/04/05 07:21:41;;;;;;;;;67.75;53.50;11.80;48.80;;;;;;4938155;29;8809;-62
2022/04/05 07:24:07;;;;;;;;;65.50;54.50;11.60;48.20;;;;;;4937824;29;8759;-59
2022/04/05 07:26:32;;;;;;;;;62.50;50.00;10.70;50.70;;;;;;4935884;29;8826;-58
2022/04/05 07:28:58;;;;;;;;;56.75;47.50;10.40;51.20;;;;;;4937649;29;8930;-59
2022/04/05 07:31:24;;;;;;;;;60.50;49.00;10.20;52.20;;;;;;4937746;29;8783;-62
2022/04/05 07:33:50;;;;;;;;;55.25;47.75;10.50;51.90;;;;;;4937721;29;9406;-62
2022/04/05 07:36:16;;;;;;;;;67.25;54.25;10.90;50.50;;;;;;4937537;29;8984;-61
2022/04/05 07:38:41;;;;;;;;;69.25;57.00;10.70;51.40;;;;;;4937692;29;8779;-61
2022/04/05 07:41:07;;;;;;;;;71.25;57.75;10.80;51.50;;;;;;4937614;29;8787;-59
2022/04/05 07:43:33;;;;;;;;;65.00;53.50;10.90;50.90;;;;;;4936497;29;8790;-59
2022/04/05 07:45:59;;;;;;;;;67.75;54.00;11.20;51.30;;;;;;4937633;29;8794;-60
2022/04/05 07:48:28;;;;;;;;;61.00;47.75;11.30;49.80;;;;;;4937324;29;8860;-63
2022/04/05 07:50:54;;;;;;;;;61.00;49.75;11.40;49.40;;;;;;4937225;29;8831;-63
2022/04/05 07:53:20;;;;;;;;;56.25;47.75;11.40;49.00;;;;;;4937659;29;8861;-59
2022/04/05 07:55:46;;;;;;;;;66.75;54.00;11.40;49.10;;;;;;4937477;29;8894;-58
2022/04/05 07:58:12;;;;;;;;;65.50;52.00;11.40;49.50;;;;;;4937537;29;8922;-62
2022/04/05 08:00:38;;;;;;;;;65.25;53.00;12.00;48.50;;;;;;4936295;29;8805;-60
2022/04/05 08:03:04;;;;;;;;;47.00;41.25;12.10;48.90;;;;;;4937464;29;8798;-62
2022/04/05 08:05:30;;;;;;;;;53.50;43.00;11.90;47.60;;;;;;4937236;29;9457;-61
2022/04/05 08:07:56;;;;;;;;;43.75;38.75;12.00;47.20;;;;;;4937383;29;8799;-60
2022/04/05 08:10:22;;;;;;;;;33.75;31.50;12.10;46.60;;;;;;4936000;29;8794;-60
2022/04/05 08:12:50;;;;;;;;;29.50;28.50;12.10;45.40;;;;;;4937142;29;8925;-59
2022/04/05 08:15:21;;;;;;;;;35.25;32.50;12.00;45.60;;;;;;4937013;29;8909;-60
2022/04/05 08:17:48;;;;;;;;;40.00;35.50;12.00;46.60;;;;;;4937286;29;9477;-59
2022/04/05 08:20:15;;;;;;;;;42.75;38.25;12.10;47.00;;;;;;4937018;29;8889;-59
2022/04/05 08:22:41;;;;;;;;;36.50;34.75;12.10;46.70;;;;;;4937099;29;9383;-60
2022/04/05 08:25:09;;;;;;;;;39.50;36.00;12.60;45.40;;;;;;4937350;29;8811;-60
2022/04/05 08:27:36;;;;;;;;;31.50;28.25;12.90;45.00;;;;;;4937317;29;8822;-59
2022/04/05 08:30:04;;;;;;;;;29.00;27.25;12.90;44.20;;;;;;4937048;29;8774;-62
2022/04/05 08:32:30;;;;;;;;;26.75;26.00;12.90;43.80;;;;;;4937040;29;8806;-59
2022/04/05 08:34:56;;;;;;;;;36.00;31.75;12.70;44.30;;;;;;4937154;29;8857;-59
2022/04/05 08:37:24;;;;;;;;;32.50;31.00;12.80;44.90;;;;;;4937921;29;8827;-60
2022/04/05 08:39:50;;;;;;;;;31.25;29.75;13.00;44.70;;;;;;4940869;29;8810;-60
2022/04/05 08:42:16;;;;;;;;;37.25;33.00;13.20;43.90;;;;;;4941099;29;8791;-60
2022/04/05 08:44:43;;;;;;;;;32.75;30.25;13.70;42.90;;;;;;4940780;29;8887;-65
2022/04/05 08:47:12;;;;;;;;;20.25;18.25;13.80;42.90;;;;;;4950183;28;9498;-57
2022/04/05 08:49:38;;;;;;;;;18.00;17.25;13.30;41.20;;;;;;4941907;29;8909;-58
2022/04/05 08:52:05;;;;;;;;;19.00;19.00;12.90;41.50;;;;;;4940536;28;8893;-57
2022/04/05 08:54:31;;;;;;;;;17.75;14.00;12.90;41.00;;;;;;4948568;28;8792;-58
2022/04/05 08:56:57;;;;;;;;;15.00;14.00;12.60;40.80;;;;;;4953451;28;8828;-58
2022/04/05 08:59:23;;;;;;;;;16.67;15.67;12.70;40.80;;;;;;4959285;28;9457;-58
2022/04/05 09:01:53;;;;;;;;;13.00;12.67;12.70;40.10;;;;;;4956758;28;8792;-59
2022/04/05 09:04:19;;;;;;;;;11.33;11.33;12.90;40.50;;;;;;4959468;28;8903;-58
2022/04/05 09:06:46;;;;;;;;;8.67;7.00;13.10;40.10;;;;;;4957214;28;9415;-58
2022/04/05 09:09:16;;;;;;;;;7.00;6.67;13.00;38.60;;;;;;4959355;28;9463;-58
2022/04/05 09:11:50;;;;;;;;;9.00;9.00;13.10;38.40;;;;;;4959161;28;8760;-58
2022/04/05 09:14:28;;;;;;;;;8.67;7.00;13.30;37.90;;;;;;4957496;28;8791;-58
2022/04/05 09:17:08;;;;;;;;;6.00;6.00;13.20;37.30;;;;;;4956852;28;8820;-58
2022/04/05 09:19:45;;;;;;;;;6.67;6.67;13.50;38.40;;;;;;4955137;28;8799;-58
2022/04/05 09:22:12;;;;;;;;;6.33;6.33;13.50;36.40;;;;;;4955182;28;8788;-58
2022/04/05 09:24:43;;;;;;;;;6.00;6.00;13.50;36.50;;;;;;4959060;28;9368;-58
2022/04/05 09:27:10;;;;;;;;;8.67;4.67;13.70;36.30;;;;;;4958750;28;8816;-58
2022/04/05 09:29:40;;;;;;;;;7.33;7.33;13.80;36.30;;;;;;4953592;28;8804;-58
2022/04/05 09:32:07;;;;;;;;;9.33;8.33;13.90;35.90;;;;;;4952730;28;8788;-58
2022/04/05 09:34:46;;;;;;;;;8.67;8.67;13.80;36.20;;;;;;4947951;28;8777;-58
2022/04/05 09:37:13;;;;;;;;;8.67;8.00;13.50;37.90;;;;;;4946576;28;8828;-58
2022/04/05 09:39:39;;;;;;;;;10.00;10.00;13.50;36.90;;;;;;4958316;28;8895;-58
2022/04/05 09:42:08;;;;;;;;;14.00;11.00;13.60;36.60;;;;;;4955906;28;8935;-58
2022/04/05 09:44:42;;;;;;;;;10.67;9.33;14.00;37.00;;;;;;4952556;28;8807;-59
2022/04/05 09:47:16;;;;;;;;;7.33;7.33;13.90;36.70;;;;;;4969745;28;8867;-58
2022/04/05 09:49:44;;;;;;;;;9.00;7.67;14.10;36.50;;;;;;4976776;28;8774;-58
2022/04/05 09:52:30;;;;;;;;;10.00;10.00;14.10;35.20;;;;;;4977957;28;8786;-59
2022/04/05 09:55:09;;;;;;;;;8.00;8.00;14.10;35.50;;;;;;4955509;28;9463;-58
2022/04/05 09:57:36;;;;;;;;;10.33;9.33;14.50;35.80;;;;;;4958886;28;8890;-58
2022/04/05 10:00:17;;;;;;;;;9.00;8.00;14.50;35.40;;;;;;4958584;28;8784;-58
2022/04/05 10:03:10;;;;;;;;;9.00;8.00;14.50;36.00;;;;;;4958109;28;8915;-58
2022/04/05 10:05:36;;;;;;;;;5.00;5.00;14.70;34.40;;;;;;4949193;29;8806;-58
2022/04/05 10:08:03;;;;;;;;;7.67;7.67;15.30;34.30;;;;;;4947482;28;8806;-58
2022/04/05 10:10:29;;;;;;;;;7.00;7.00;15.20;34.10;;;;;;4945989;29;8815;-58
2022/04/05 10:12:55;;;;;;;;;10.33;8.00;15.30;33.50;;;;;;4941703;28;8815;-58
2022/04/05 10:15:22;;;;;;;;;8.67;8.67;15.10;33.80;;;;;;4957286;28;8780;-58
2022/04/05 10:17:57;;;;;;;;;9.33;9.33;15.50;33.30;;;;;;4955998;28;8843;-58
2022/04/05 10:20:25;;;;;;;;;11.00;11.00;15.80;33.40;;;;;;4956906;28;8772;-58
2022/04/05 10:22:54;;;;;;;;;10.33;9.67;15.80;35.00;;;;;;4956744;28;8811;-58
2022/04/05 10:25:21;;;;;;;;;11.33;11.33;15.80;35.30;;;;;;4951309;28;9508;-59
2022/04/05 10:27:48;;;;;;;;;9.00;9.00;15.70;34.30;;;;;;4952075;28;8895;-61
2022/04/05 10:30:29;;;;;;;;;9.33;9.33;16.30;34.10;;;;;;4956940;28;8768;-61
2022/04/05 10:33:29;;;;;;;;;8.67;8.67;15.90;33.90;;;;;;4956697;28;8769;-61
2022/04/05 10:36:00;;;;;;;;;10.67;10.00;16.20;33.30;;;;;;4954020;28;8789;-61
2022/04/05 10:38:29;;;;;;;;;9.33;7.33;16.30;32.60;;;;;;4956148;28;9034;-61
2022/04/05 10:41:19;;;;;;;;;9.33;8.33;16.80;33.60;;;;;;4955541;28;8830;-62
2022/04/05 10:44:05;;;;;;;;;10.00;10.00;17.00;33.90;;;;;;4951650;28;8818;-62
2022/04/05 10:46:42;;;;;;;;;10.00;8.67;17.40;33.90;;;;;;4954173;28;8780;-61
2022/04/05 10:49:08;;;;;;;;;11.00;11.00;17.50;31.90;;;;;;4957476;28;8772;-61
2022/04/05 10:52:08;;;;;;;;;10.00;10.00;18.00;31.20;;;;;;4957434;28;8927;-61
2022/04/05 10:55:08;;;;;;;;;12.00;10.67;18.30;30.60;;;;;;4955773;28;8796;-61
2022/04/05 10:57:36;;;;;;;;;8.67;8.67;17.90;31.40;;;;;;4946737;29;8858;-62
2022/04/05 11:00:07;;;;;;;;;9.00;8.00;17.80;32.30;;;;;;4938255;29;8887;-62
2022/04/05 11:02:51;;;;;;;;;12.33;11.00;18.60;32.20;;;;;;4938245;29;8795;-61
2022/04/05 11:05:19;;;;;;;;;13.33;13.00;19.10;30.90;;;;;;4938267;29;9390;-62
2022/04/05 11:08:04;;;;;;;;;13.67;9.67;18.80;29.80;;;;;;4948268;28;8803;-62
2022/04/05 11:10:37;;;;;;;;;13.33;13.00;18.60;29.90;;;;;;4948811;28;8801;-61
2022/04/05 11:13:08;;;;;;;;;10.00;10.00;19.20;29.80;;;;;;4937924;29;8897;-62
2022/04/05 11:15:47;;;;;;;;;13.33;11.33;19.20;29.60;;;;;;4942455;28;8813;-62
2022/04/05 11:18:16;;;;;;;;;12.67;10.00;18.50;31.20;;;;;;4943561;28;8832;-62
2022/04/05 11:20:45;;;;;;;;;12.00;12.00;18.30;30.40;;;;;;4948429;29;8815;-62
2022/04/05 11:23:12;;;;;;;;;9.00;9.00;18.60;30.20;;;;;;4938109;29;9457;-63
2022/04/05 11:25:38;;;;;;;;;11.67;10.67;19.50;29.70;;;;;;4940178;28;8830;-63
2022/04/05 11:28:12;;;;;;;;;10.33;10.33;19.70;30.60;;;;;;4946514;29;8951;-63
2022/04/05 11:31:02;;;;;;;;;8.33;8.33;19.70;28.80;;;;;;4938224;28;8790;-67
2022/04/05 11:33:34;;;;;;;;;9.67;9.00;20.30;29.40;;;;;;4945923;28;8791;-60
2022/04/05 11:36:13;;;;;;;;;7.00;7.00;20.40;27.60;;;;;;4947753;28;8808;-59
2022/04/05 11:38:48;;;;;;;;;12.33;12.33;20.20;27.50;;;;;;4946259;29;8815;-59
2022/04/05 11:41:28;;;;;;;;;8.67;8.67;19.70;27.80;;;;;;4940183;28;8787;-60
2022/04/05 11:44:02;;;;;;;;;9.00;9.00;20.40;27.60;;;;;;4948114;29;8819;-59
2022/04/05 11:46:36;;;;;;;;;10.67;10.00;20.70;27.50;;;;;;4937673;29;8829;-60
2022/04/05 11:49:11;;;;;;;;;9.00;8.33;20.80;26.60;;;;;;4937506;29;8815;-59
2022/04/05 11:51:43;;;;;;;;;10.33;10.33;19.90;27.00;;;;;;4937530;28;8916;-60
2022/04/05 11:54:14;;;;;;;;;10.00;10.00;20.00;27.80;;;;;;4948746;28;8824;-59
2022/04/05 11:56:41;;;;;;;;;6.33;6.33;20.00;28.50;;;;;;4947870;29;8882;-62
2022/04/05 11:59:09;;;;;;;;;12.67;11.33;20.20;27.20;;;;;;4945716;29;8814;-62
2022/04/05 12:01:37;;;;;;;;;10.00;10.00;20.60;26.90;;;;;;4937411;29;8790;-61
2022/04/05 12:04:07;;;;;;;;;9.67;9.67;20.90;26.80;;;;;;4947374;28;8816;-61
2022/04/05 12:06:37;;;;;;;;;9.33;9.33;21.80;26.60;;;;;;4955565;28;11648;-61
2022/04/05 12:09:13;;;;;;;;;12.33;12.33;21.90;24.60;;;;;;4955979;28;11503;-62
2022/04/05 12:11:41;;;;;;;;;8.75;8.75;22.20;24.80;;;;;;4943892;28;11670;-62
2022/04/05 12:14:09;;;;;;;;;9.50;9.25;22.40;24.40;;;;;;4947558;28;11523;-60
2022/04/05 12:16:53;;;;;;;;;7.75;7.75;22.20;25.50;;;;;;4939051;28;11703;-61
2022/04/05 12:19:33;;;;;;;;;8.50;8.50;25.40;23.10;;;;;;4955293;28;11529;-62
2022/04/05 12:22:07;;;;;;;;;8.00;8.00;32.50;20.40;;;;;;4956090;28;11525;-62
2022/04/05 12:24:35;;;;;;;;;6.75;6.75;38.20;17.20;;;;;;4950227;28;11613;-62
2022/04/05 12:27:03;;;;;;;;;5.00;5.00;40.40;15.60;;;;;;4947860;28;11541;-61
2022/04/05 12:29:30;;;;;;;;;6.00;6.00;41.60;15.60;;;;;;4936778;29;11640;-61
2022/04/05 12:32:07;;;;;;;;;6.00;6.00;43.40;14.00;;;;;;4942148;29;11503;-59
2022/04/05 12:34:33;;;;;;;;;6.25;6.25;42.50;14.20;;;;;;4946451;29;11515;-61
2022/04/05 12:37:03;;;;;;;;;4.25;4.25;43.00;14.30;;;;;;4955385;28;11539;-60
2022/04/05 12:39:32;;;;;;;;;5.75;5.75;43.80;14.40;;;;;;4955652;28;11653;-59
2022/04/05 12:42:01;;;;;;;;;5.25;5.25;44.40;13.70;;;;;;4955614;28;11501;-60
2022/04/05 12:44:30;;;;;;;;;6.25;6.25;44.60;13.10;;;;;;4950969;28;11620;-60
2022/04/05 12:47:08;;;;;;;;;8.00;8.00;45.20;12.90;;;;;;4955272;28;11500;-59
2022/04/05 12:49:46;;;;;;;;;6.75;6.75;47.10;12.80;;;;;;4955816;28;12163;-57